Time;durP1;ratioP1;P1;durP2;ratioP2;P2;SDS_P1;SDS_P2;PMS_P1;PMS_P2;Temp;Humidity;BMP_temperature;BMP_pressure;BME280_temperature;BME280_humidity;BME280_pressure;Samples;Min_cycle;Max_cycle;Signal;HPM_P1;HPM_P2
2023/04/21 00:00:07;;;;;;;45.15;19.15;;;;;;;;;;6271514;28;20081;-53
2023/04/21 00:03:28;;;;;;;39.72;18.80;;;;;;;;;;6266988;28;20040;-63
2023/04/21 00:06:30;;;;;;;37.55;17.95;;;;;;;;;;6264865;28;20048;-52
2023/04/21 00:09:30;;;;;;;37.95;19.40;;;;;;;;;;6267585;28;20400;-56
2023/04/21 00:12:34;;;;;;;39.25;18.85;;;;;;;;;;6270041;28;20523;-55
2023/04/21 00:15:34;;;;;;;36.28;18.63;;;;;;;;;;6269050;28;20033;-54
2023/04/21 00:18:35;;;;;;;41.63;18.90;;;;;;;;;;6269216;28;20080;-58
2023/04/21 00:21:36;;;;;;;35.95;18.77;;;;;;;;;;6267561;28;20056;-53
2023/04/21 00:24:37;;;;;;;41.60;19.30;;;;;;;;;;6270115;28;20554;-54
2023/04/21 00:27:37;;;;;;;32.05;17.63;;;;;;;;;;6270060;28;20355;-53
2023/04/21 00:30:38;;;;;;;38.17;18.65;;;;;;;;;;6280127;28;20840;-63
2023/04/21 00:33:38;;;;;;;37.55;18.85;;;;;;;;;;6270940;28;20412;-55
2023/04/21 00:36:39;;;;;;;44.45;18.92;;;;;;;;;;6265742;28;20753;-60
2023/04/21 00:39:39;;;;;;;39.10;20.17;;;;;;;;;;6270465;28;20075;-51
2023/04/21 00:42:40;;;;;;;39.65;19.00;;;;;;;;;;6277948;28;20139;-60
2023/04/21 00:45:44;;;;;;;39.33;20.45;;;;;;;;;;6269673;28;20041;-54
2023/04/21 00:48:45;;;;;;;42.63;20.00;;;;;;;;;;6269636;28;20056;-50
2023/04/21 00:51:46;;;;;;;41.28;21.98;;;;;;;;;;6270736;28;20132;-52
2023/04/21 00:54:47;;;;;;;41.85;21.30;;;;;;;;;;6267542;28;20856;-51
2023/04/21 00:57:48;;;;;;;42.63;20.27;;;;;;;;;;6270425;28;20041;-57
2023/04/21 01:00:49;;;;;;;41.50;20.02;;;;;;;;;;6270711;28;20041;-50
2023/04/21 01:03:50;;;;;;;40.45;20.55;;;;;;;;;;6267114;28;20107;-53
2023/04/21 01:06:51;;;;;;;41.45;21.52;;;;;;;;;;6269627;28;20052;-55
2023/04/21 01:09:51;;;;;;;47.05;20.55;;;;;;;;;;6273187;28;20407;-52
2023/04/21 01:12:52;;;;;;;38.15;20.63;;;;;;;;;;6266548;28;20135;-62
2023/04/21 01:15:52;;;;;;;39.47;20.50;;;;;;;;;;6266433;28;20071;-55
2023/04/21 01:18:54;;;;;;;46.47;21.73;;;;;;;;;;6269636;28;20049;-63
2023/04/21 01:21:59;;;;;;;41.40;22.50;;;;;;;;;;6264983;28;20080;-50
2023/04/21 01:25:00;;;;;;;41.92;21.50;;;;;;;;;;6267007;28;20487;-56
2023/04/21 01:28:00;;;;;;;37.40;20.65;;;;;;;;;;6269556;28;20044;-52
2023/04/21 01:31:03;;;;;;;38.25;18.73;;;;;;;;;;6267370;28;20044;-58
2023/04/21 01:34:04;;;;;;;39.92;20.13;;;;;;;;;;6267972;28;20083;-55
2023/04/21 01:37:12;;;;;;;42.00;21.05;;;;;;;;;;6267646;28;20049;-61
2023/04/21 01:40:12;;;;;;;45.45;20.35;;;;;;;;;;6267640;28;20462;-51
2023/04/21 01:43:15;;;;;;;44.53;22.83;;;;;;;;;;6267580;28;20056;-56
2023/04/21 01:46:19;;;;;;;47.42;24.95;;;;;;;;;;6270354;28;20508;-51
2023/04/21 01:49:20;;;;;;;44.05;22.00;;;;;;;;;;6270171;28;20082;-53
2023/04/21 01:52:20;;;;;;;45.83;23.00;;;;;;;;;;6265606;28;20029;-55
2023/04/21 01:55:21;;;;;;;36.63;20.58;;;;;;;;;;6266064;28;20124;-54
2023/04/21 01:58:22;;;;;;;38.38;20.67;;;;;;;;;;6267222;28;20489;-54
2023/04/21 02:01:23;;;;;;;42.13;21.38;;;;;;;;;;6268124;28;20041;-53
2023/04/21 02:04:23;;;;;;;36.58;19.83;;;;;;;;;;6265746;28;20055;-59
2023/04/21 02:07:24;;;;;;;37.85;20.60;;;;;;;;;;6269872;28;20064;-57
2023/04/21 02:10:24;;;;;;;43.60;20.83;;;;;;;;;;6266963;28;20435;-62
2023/04/21 02:13:25;;;;;;;38.78;20.08;;;;;;;;;;6270385;28;20139;-63
2023/04/21 02:16:26;;;;;;;40.58;19.88;;;;;;;;;;6268709;28;20057;-52
2023/04/21 02:19:26;;;;;;;42.67;20.30;;;;;;;;;;6279173;28;20044;-53
2023/04/21 02:22:27;;;;;;;43.55;20.42;;;;;;;;;;6267445;28;20048;-56
2023/04/21 02:25:28;;;;;;;39.95;20.05;;;;;;;;;;6267338;28;20081;-52
2023/04/21 02:28:30;;;;;;;40.60;20.17;;;;;;;;;;6267134;28;20083;-63
2023/04/21 02:31:31;;;;;;;34.35;18.85;;;;;;;;;;6269443;28;20044;-61
2023/04/21 02:34:31;;;;;;;36.67;18.55;;;;;;;;;;6268730;28;20094;-55
2023/04/21 02:37:33;;;;;;;35.90;18.17;;;;;;;;;;6269502;28;20143;-52
2023/04/21 02:40:35;;;;;;;40.15;19.50;;;;;;;;;;6266312;28;20133;-55
2023/04/21 02:43:36;;;;;;;37.15;18.70;;;;;;;;;;6278324;28;20101;-51
2023/04/21 02:46:39;;;;;;;38.65;19.88;;;;;;;;;;6267703;28;20056;-61
2023/04/21 02:49:41;;;;;;;38.67;18.48;;;;;;;;;;6269534;28;20048;-54
2023/04/21 02:52:41;;;;;;;33.55;17.92;;;;;;;;;;6267790;28;20049;-61
2023/04/21 02:55:42;;;;;;;36.97;18.67;;;;;;;;;;6266090;28;20740;-51
2023/04/21 02:58:43;;;;;;;37.28;19.65;;;;;;;;;;6270480;28;21075;-51
2023/04/21 03:01:45;;;;;;;31.13;17.77;;;;;;;;;;6268054;28;20475;-59
2023/04/21 03:04:45;;;;;;;37.03;18.27;;;;;;;;;;6264819;28;20040;-53
2023/04/21 03:07:46;;;;;;;37.70;17.50;;;;;;;;;;6269293;28;20392;-51
2023/04/21 03:10:46;;;;;;;43.80;19.38;;;;;;;;;;6276756;28;20033;-55
2023/04/21 03:13:47;;;;;;;34.92;17.98;;;;;;;;;;6273273;28;20080;-51
2023/04/21 03:16:47;;;;;;;33.22;17.55;;;;;;;;;;6275865;28;20491;-52
2023/04/21 03:19:48;;;;;;;39.17;18.40;;;;;;;;;;6283380;28;20041;-61
2023/04/21 03:22:49;;;;;;;32.85;17.65;;;;;;;;;;6278078;28;20055;-60
2023/04/21 03:25:49;;;;;;;34.72;18.65;;;;;;;;;;6280921;28;20139;-53
2023/04/21 03:28:50;;;;;;;38.50;18.25;;;;;;;;;;6275100;28;20502;-53
2023/04/21 03:31:50;;;;;;;31.50;18.05;;;;;;;;;;6276837;28;20067;-52
2023/04/21 03:34:51;;;;;;;32.45;17.75;;;;;;;;;;6274535;28;20090;-53
2023/04/21 03:37:52;;;;;;;41.30;18.73;;;;;;;;;;6277377;28;20041;-54
2023/04/21 03:40:52;;;;;;;35.05;18.17;;;;;;;;;;6273106;28;20709;-53
2023/04/21 03:43:53;;;;;;;38.88;18.48;;;;;;;;;;6278355;28;20135;-54
2023/04/21 03:46:54;;;;;;;39.47;17.52;;;;;;;;;;6286049;28;20421;-52
2023/04/21 03:49:55;;;;;;;36.47;17.90;;;;;;;;;;6291480;28;20044;-53
2023/04/21 03:52:55;;;;;;;36.58;18.65;;;;;;;;;;6271332;28;20498;-60
2023/04/21 03:55:56;;;;;;;40.33;17.77;;;;;;;;;;6273972;28;20080;-53
2023/04/21 03:58:56;;;;;;;32.95;18.10;;;;;;;;;;6272071;28;20057;-50
2023/04/21 04:01:57;;;;;;;32.33;17.42;;;;;;;;;;6281023;28;20133;-51
2023/04/21 04:04:58;;;;;;;35.85;18.13;;;;;;;;;;6274619;28;20037;-54
2023/04/21 04:07:58;;;;;;;34.60;17.15;;;;;;;;;;6272408;28;20063;-51
2023/04/21 04:10:59;;;;;;;30.92;17.88;;;;;;;;;;6271170;28;20137;-53
2023/04/21 04:14:00;;;;;;;36.30;17.90;;;;;;;;;;6268900;28;20044;-54
2023/04/21 04:17:00;;;;;;;33.47;17.75;;;;;;;;;;6274768;28;20043;-53
2023/04/21 04:20:03;;;;;;;35.63;17.27;;;;;;;;;;6276513;28;20547;-54
2023/04/21 04:23:04;;;;;;;36.67;18.02;;;;;;;;;;6269984;28;20485;-58
2023/04/21 04:26:04;;;;;;;37.55;20.23;;;;;;;;;;6267111;28;20051;-62
2023/04/21 04:29:09;;;;;;;40.45;20.33;;;;;;;;;;6273314;28;20041;-59
2023/04/21 04:32:09;;;;;;;37.53;21.52;;;;;;;;;;6270363;28;20041;-50
2023/04/21 04:35:11;;;;;;;39.83;21.70;;;;;;;;;;6269457;28;20052;-54
2023/04/21 04:38:14;;;;;;;35.53;17.65;;;;;;;;;;6268179;28;20064;-53
2023/04/21 04:41:15;;;;;;;33.58;17.58;;;;;;;;;;6270763;28;20051;-60
2023/04/21 04:44:16;;;;;;;37.70;18.60;;;;;;;;;;6267911;28;20037;-53
2023/04/21 04:47:17;;;;;;;34.17;17.58;;;;;;;;;;6273009;28;20082;-52
2023/04/21 04:50:17;;;;;;;34.63;17.95;;;;;;;;;;6270607;28;20122;-52
2023/04/21 04:53:18;;;;;;;32.75;18.20;;;;;;;;;;6267156;28;20041;-56
2023/04/21 04:56:19;;;;;;;30.73;17.90;;;;;;;;;;6270538;28;20052;-57
2023/04/21 04:59:19;;;;;;;31.70;18.15;;;;;;;;;;6269241;28;20067;-53
2023/04/21 05:02:21;;;;;;;31.23;18.30;;;;;;;;;;6267851;28;20056;-61
2023/04/21 05:05:23;;;;;;;37.25;18.52;;;;;;;;;;6268166;28;20049;-52
2023/04/21 05:08:24;;;;;;;34.42;17.42;;;;;;;;;;6270268;28;20514;-50
2023/04/21 05:11:24;;;;;;;37.05;17.38;;;;;;;;;;6270369;28;20037;-53
2023/04/21 05:14:26;;;;;;;37.35;19.25;;;;;;;;;;6267970;28;20094;-59
2023/04/21 05:17:27;;;;;;;34.15;18.95;;;;;;;;;;6268053;28;20651;-58
2023/04/21 05:20:28;;;;;;;32.00;17.15;;;;;;;;;;6280266;28;20044;-50
2023/04/21 05:23:29;;;;;;;34.03;17.38;;;;;;;;;;6279332;28;20889;-57
2023/04/21 05:26:30;;;;;;;28.45;15.40;;;;;;;;;;6282623;28;20074;-51
2023/04/21 05:29:33;;;;;;;32.40;15.63;;;;;;;;;;6282873;28;20049;-53
2023/04/21 05:32:33;;;;;;;29.33;16.15;;;;;;;;;;6277284;28;20052;-50
2023/04/21 05:35:34;;;;;;;29.98;15.98;;;;;;;;;;6278645;28;20065;-53
2023/04/21 05:38:35;;;;;;;26.45;15.93;;;;;;;;;;6279723;28;20045;-53
2023/04/21 05:41:36;;;;;;;26.27;15.73;;;;;;;;;;6286497;28;20509;-53
2023/04/21 05:44:37;;;;;;;38.25;17.65;;;;;;;;;;6278641;28;20041;-58
2023/04/21 05:47:38;;;;;;;33.78;16.38;;;;;;;;;;6267992;28;20029;-51
2023/04/21 05:50:38;;;;;;;31.55;15.70;;;;;;;;;;6265943;28;20049;-54
2023/04/21 05:53:39;;;;;;;34.65;16.80;;;;;;;;;;6268409;28;20033;-54
2023/04/21 05:56:40;;;;;;;30.00;17.50;;;;;;;;;;6273689;28;20056;-52
2023/04/21 05:59:40;;;;;;;33.28;18.75;;;;;;;;;;6267849;28;20044;-53
2023/04/21 06:02:41;;;;;;;29.75;16.73;;;;;;;;;;6264758;28;20129;-55
2023/04/21 06:05:41;;;;;;;34.97;16.30;;;;;;;;;;6270419;28;20437;-50
2023/04/21 06:08:42;;;;;;;35.92;17.23;;;;;;;;;;6268771;28;20139;-52
2023/04/21 06:11:42;;;;;;;36.47;18.83;;;;;;;;;;6271541;28;20095;-59
2023/04/21 06:14:43;;;;;;;34.03;15.32;;;;;;;;;;6267130;28;20444;-55
2023/04/21 06:17:43;;;;;;;28.27;15.40;;;;;;;;;;6265548;28;21073;-51
2023/04/21 06:20:54;;;;;;;26.70;14.48;;;;;;;;;;6266752;28;20041;-54
2023/04/21 06:23:54;;;;;;;26.52;14.07;;;;;;;;;;6265982;28;20417;-54
2023/04/21 06:26:55;;;;;;;30.90;15.13;;;;;;;;;;6266790;28;20249;-52
2023/04/21 06:29:55;;;;;;;27.95;14.63;;;;;;;;;;6267306;28;20515;-52
2023/04/21 06:32:56;;;;;;;32.60;17.27;;;;;;;;;;6266012;28;20048;-53
2023/04/21 06:35:57;;;;;;;28.58;16.55;;;;;;;;;;6266406;28;20041;-52
2023/04/21 06:38:57;;;;;;;26.02;14.95;;;;;;;;;;6265045;28;20045;-52
2023/04/21 06:41:58;;;;;;;31.63;16.38;;;;;;;;;;6266827;28;20057;-54
2023/04/21 06:44:59;;;;;;;39.47;18.90;;;;;;;;;;6263990;28;20091;-53
2023/04/21 06:47:59;;;;;;;37.95;18.20;;;;;;;;;;6265903;28;20045;-52
2023/04/21 06:51:01;;;;;;;25.42;15.30;;;;;;;;;;6264926;28;20500;-50
2023/04/21 06:54:02;;;;;;;37.30;17.52;;;;;;;;;;6262871;28;20405;-53
2023/04/21 06:57:03;;;;;;;31.13;15.20;;;;;;;;;;6269596;28;20047;-54
2023/04/21 07:00:05;;;;;;;25.02;11.95;;;;;;;;;;6270152;28;20045;-55
2023/04/21 07:03:06;;;;;;;22.88;11.57;;;;;;;;;;6264424;28;20060;-54
2023/04/21 07:06:06;;;;;;;23.90;10.80;;;;;;;;;;6266416;28;20052;-56
2023/04/21 07:09:07;;;;;;;21.17;11.13;;;;;;;;;;6267275;28;22264;-50
2023/04/21 07:12:08;;;;;;;26.23;12.48;;;;;;;;;;6265287;28;20056;-53
2023/04/21 07:15:09;;;;;;;28.13;10.57;;;;;;;;;;6266531;28;20171;-54
2023/04/21 07:18:09;;;;;;;21.45;10.02;;;;;;;;;;6267902;28;20040;-51
2023/04/21 07:21:10;;;;;;;22.10;10.23;;;;;;;;;;6272496;28;20135;-53
2023/04/21 07:24:10;;;;;;;22.58;10.50;;;;;;;;;;6268029;28;20467;-54
2023/04/21 07:27:14;;;;;;;22.45;10.45;;;;;;;;;;6271867;28;20395;-51
2023/04/21 07:30:15;;;;;;;21.27;10.25;;;;;;;;;;6272651;28;20045;-55
2023/04/21 07:33:15;;;;;;;26.23;10.88;;;;;;;;;;6268539;28;20049;-52
2023/04/21 07:36:16;;;;;;;28.58;10.70;;;;;;;;;;6269964;28;20048;-52
2023/04/21 07:39:17;;;;;;;27.67;11.47;;;;;;;;;;6270983;28;20049;-56
2023/04/21 07:42:18;;;;;;;19.48;9.13;;;;;;;;;;6270378;28;20297;-52
2023/04/21 07:45:18;;;;;;;20.05;8.82;;;;;;;;;;6270278;28;20529;-50
2023/04/21 07:48:19;;;;;;;18.63;8.95;;;;;;;;;;6270389;28;20056;-60
2023/04/21 07:51:19;;;;;;;19.75;9.20;;;;;;;;;;6268009;28;20041;-55
2023/04/21 07:54:20;;;;;;;18.05;9.15;;;;;;;;;;6267424;28;20044;-58
2023/04/21 07:57:21;;;;;;;18.80;9.05;;;;;;;;;;6269004;28;20152;-54
2023/04/21 08:00:21;;;;;;;22.95;9.35;;;;;;;;;;6270901;28;20484;-55
2023/04/21 08:03:22;;;;;;;19.73;9.32;;;;;;;;;;6267403;28;20054;-57
2023/04/21 08:06:23;;;;;;;16.55;8.63;;;;;;;;;;6268197;28;20076;-53
2023/04/21 08:09:24;;;;;;;16.05;8.23;;;;;;;;;;6269560;28;20595;-55
2023/04/21 08:12:25;;;;;;;17.67;9.00;;;;;;;;;;6269003;28;20052;-52
2023/04/21 08:15:26;;;;;;;17.77;8.60;;;;;;;;;;6265282;28;20052;-54
2023/04/21 08:18:26;;;;;;;18.05;8.95;;;;;;;;;;6268863;28;20091;-53
2023/04/21 08:21:27;;;;;;;16.17;8.88;;;;;;;;;;6268003;28;20056;-51
2023/04/21 08:24:27;;;;;;;16.67;7.78;;;;;;;;;;6266523;28;20468;-54
2023/04/21 08:27:28;;;;;;;15.38;7.80;;;;;;;;;;6268260;28;20476;-52
2023/04/21 08:30:29;;;;;;;13.07;8.43;;;;;;;;;;6266888;28;20078;-52
2023/04/21 08:33:29;;;;;;;14.40;7.90;;;;;;;;;;6266481;28;20044;-52
2023/04/21 08:36:30;;;;;;;16.30;8.60;;;;;;;;;;6265604;28;20045;-51
2023/04/21 08:39:31;;;;;;;14.30;8.52;;;;;;;;;;6272459;28;20045;-51
2023/04/21 08:42:32;;;;;;;14.13;7.93;;;;;;;;;;6269116;28;20048;-54
2023/04/21 08:45:34;;;;;;;14.70;7.80;;;;;;;;;;6270468;28;20159;-54
2023/04/21 08:48:36;;;;;;;19.40;8.55;;;;;;;;;;6273329;28;20040;-55
2023/04/21 08:51:37;;;;;;;14.85;8.27;;;;;;;;;;6270985;28;20064;-51
2023/04/21 08:54:39;;;;;;;18.55;8.27;;;;;;;;;;6266952;28;20037;-54
2023/04/21 08:57:39;;;;;;;13.90;8.20;;;;;;;;;;6267217;28;20048;-53
2023/04/21 09:00:40;;;;;;;13.05;7.65;;;;;;;;;;6270597;28;20483;-52
2023/04/21 09:03:41;;;;;;;12.03;8.20;;;;;;;;;;6268500;28;20052;-52
2023/04/21 09:06:42;;;;;;;11.68;7.07;;;;;;;;;;6266626;28;20044;-51
2023/04/21 09:09:54;;;;;;;16.20;7.95;;;;;;;;;;6263977;28;20102;-54
2023/04/21 09:12:55;;;;;;;;;;;;;;;;;;6266770;28;20131;-55
2023/04/21 09:15:55;;;;;;;23.67;10.52;;;;;;;;;;6268190;28;19920;-58
2023/04/21 09:18:56;;;;;;;9.13;6.40;;;;;;;;;;6271962;28;20060;-51
2023/04/21 09:21:57;;;;;;;12.63;7.25;;;;;;;;;;6270165;28;20476;-56
2023/04/21 09:25:00;;;;;;;25.85;12.10;;;;;;;;;;6269197;28;20048;-51
2023/04/21 09:28:01;;;;;;;64.38;22.50;;;;;;;;;;6267771;28;20078;-53
2023/04/21 09:31:02;;;;;;;11.38;7.75;;;;;;;;;;6266824;28;20554;-54
2023/04/21 09:34:19;;;;;;;12.70;7.10;;;;;;;;;;6262337;28;20071;-54
2023/04/21 09:37:23;;;;;;;13.63;7.80;;;;;;;;;;6267020;28;20045;-53
2023/04/21 09:40:24;;;;;;;19.73;9.73;;;;;;;;;;6267376;28;20101;-52
2023/04/21 09:43:25;;;;;;;13.07;6.93;;;;;;;;;;6267271;28;20564;-54
2023/04/21 09:46:28;;;;;;;11.32;7.30;;;;;;;;;;6264938;28;20037;-54
2023/04/21 09:49:30;;;;;;;12.25;7.43;;;;;;;;;;6267587;28;20078;-56
2023/04/21 09:52:32;;;;;;;11.25;7.30;;;;;;;;;;6267607;28;20055;-59
2023/04/21 09:55:33;;;;;;;11.23;6.53;;;;;;;;;;6266085;28;20045;-56
2023/04/21 09:58:41;;;;;;;10.45;6.60;;;;;;;;;;6271466;28;20048;-52
2023/04/21 10:01:42;;;;;;;11.73;7.00;;;;;;;;;;6268382;28;20049;-56
2023/04/21 10:04:44;;;;;;;12.90;6.88;;;;;;;;;;6267173;28;20037;-53
2023/04/21 10:07:46;;;;;;;12.33;7.73;;;;;;;;;;6265946;28;20033;-52
2023/04/21 10:10:47;;;;;;;9.75;7.25;;;;;;;;;;6267323;28;20560;-53
2023/04/21 10:13:48;;;;;;;9.80;7.20;;;;;;;;;;6267180;28;20060;-52
2023/04/21 10:17:05;;;;;;;10.52;7.20;;;;;;;;;;6262907;28;20121;-55
2023/04/21 10:20:08;;;;;;;13.52;7.00;;;;;;;;;;6263760;28;20048;-53
2023/04/21 10:23:09;;;;;;;10.63;7.38;;;;;;;;;;6265655;28;20411;-51
2023/04/21 10:26:16;;;;;;;12.38;8.05;;;;;;;;;;6265886;28;20052;-53
2023/04/21 10:29:28;;;;;;;13.63;7.43;;;;;;;;;;6262726;28;20041;-54
2023/04/21 10:32:40;;;;;;;;;;;;;;;;;;6264651;28;20044;-54
2023/04/21 10:36:00;;;;;;;13.05;8.27;;;;;;;;;;6267272;28;19935;-52
2023/04/21 10:39:02;;;;;;;14.10;8.13;;;;;;;;;;6265977;28;20049;-54
2023/04/21 10:42:12;;;;;;;11.02;7.20;;;;;;;;;;6264972;28;20033;-54
2023/04/21 10:45:13;;;;;;;12.25;8.32;;;;;;;;;;6267340;28;21098;-50
2023/04/21 10:48:13;;;;;;;11.20;7.13;;;;;;;;;;6272021;28;20040;-53
2023/04/21 10:51:14;;;;;;;11.00;7.40;;;;;;;;;;6262824;28;20086;-56
2023/04/21 10:54:14;;;;;;;12.00;7.25;;;;;;;;;;6264940;28;20071;-53
2023/04/21 10:57:17;;;;;;;10.48;7.18;;;;;;;;;;6265428;28;20053;-54
2023/04/21 11:00:20;;;;;;;12.80;8.20;;;;;;;;;;6265309;28;20095;-55
2023/04/21 11:03:21;;;;;;;12.07;7.95;;;;;;;;;;6265290;28;20049;-58
2023/04/21 11:06:21;;;;;;;14.35;7.68;;;;;;;;;;6268478;28;20079;-53
2023/04/21 11:09:22;;;;;;;13.35;7.72;;;;;;;;;;6265064;28;20473;-52
2023/04/21 11:12:27;;;;;;;11.65;7.60;;;;;;;;;;6264826;28;20893;-55
2023/04/21 11:15:27;;;;;;;10.52;7.05;;;;;;;;;;6266062;28;20045;-52
2023/04/21 11:18:38;;;;;;;13.50;7.80;;;;;;;;;;6267831;28;20122;-55
2023/04/21 11:21:39;;;;;;;12.27;8.32;;;;;;;;;;6262449;28;20049;-55
2023/04/21 11:24:44;;;;;;;13.57;8.13;;;;;;;;;;6265492;28;20114;-54
2023/04/21 11:27:55;;;;;;;14.45;7.95;;;;;;;;;;6264901;28;20668;-58
2023/04/21 11:30:56;;;;;;;11.82;7.78;;;;;;;;;;6266104;28;20067;-58
2023/04/21 11:34:00;;;;;;;13.63;7.68;;;;;;;;;;6265048;28;20045;-54
2023/04/21 11:37:01;;;;;;;10.70;7.20;;;;;;;;;;6265723;28;20060;-53
2023/04/21 11:40:03;;;;;;;10.93;6.95;;;;;;;;;;6264353;28;20045;-56
2023/04/21 11:43:04;;;;;;;11.23;7.10;;;;;;;;;;6266481;28;20052;-52
2023/04/21 11:46:11;;;;;;;11.70;6.78;;;;;;;;;;6264007;28;20067;-51
2023/04/21 11:49:16;;;;;;;13.23;7.53;;;;;;;;;;6266276;28;20045;-56
2023/04/21 11:52:25;;;;;;;14.32;7.35;;;;;;;;;;6262717;28;20408;-54
2023/04/21 11:55:27;;;;;;;10.95;6.55;;;;;;;;;;6265143;28;20090;-53
2023/04/21 11:58:28;;;;;;;10.95;7.07;;;;;;;;;;6267014;28;20175;-58
2023/04/21 12:01:28;;;;;;;12.13;6.57;;;;;;;;;;6262955;28;20045;-53
2023/04/21 12:04:29;;;;;;;10.98;6.63;;;;;;;;;;6264235;28;20053;-55
2023/04/21 12:07:31;;;;;;;11.05;6.43;;;;;;;;;;6268296;28;20580;-53
2023/04/21 12:10:32;;;;;;;11.20;6.90;;;;;;;;;;6271527;28;20109;-53
2023/04/21 12:13:34;;;;;;;11.25;6.97;;;;;;;;;;6269553;28;20045;-55
2023/04/21 12:16:36;;;;;;;;;;;;;;;;;;6270369;28;20076;-56
2023/04/21 12:19:39;;;;;;;11.80;6.43;;;;;;;;;;6270700;28;20287;-55
2023/04/21 12:22:39;;;;;;;10.60;6.53;;;;;;;;;;6271415;28;20047;-59
2023/04/21 12:25:41;;;;;;;11.70;6.10;;;;;;;;;;6267883;28;20535;-56
2023/04/21 12:28:41;;;;;;;11.25;6.50;;;;;;;;;;6270291;28;20040;-52
2023/04/21 12:31:42;;;;;;;9.35;6.70;;;;;;;;;;6267409;28;20041;-54
2023/04/21 12:34:43;;;;;;;11.03;7.27;;;;;;;;;;6269870;28;20037;-49
2023/04/21 12:37:44;;;;;;;11.65;6.70;;;;;;;;;;6270765;28;20056;-53
2023/04/21 12:40:44;;;;;;;12.17;6.80;;;;;;;;;;6270688;28;20147;-52
2023/04/21 12:43:45;;;;;;;11.37;6.33;;;;;;;;;;6265055;28;20253;-49
2023/04/21 12:46:47;;;;;;;11.57;8.27;;;;;;;;;;6268991;28;20044;-53
2023/04/21 12:49:48;;;;;;;13.18;7.35;;;;;;;;;;6268555;28;20044;-49
2023/04/21 12:52:50;;;;;;;11.75;6.82;;;;;;;;;;6268243;28;20060;-51
2023/04/21 12:55:51;;;;;;;10.98;7.07;;;;;;;;;;6269204;28;20424;-54
2023/04/21 12:58:51;;;;;;;11.15;6.97;;;;;;;;;;6268966;28;20057;-54
2023/04/21 13:01:52;;;;;;;9.23;6.23;;;;;;;;;;6265478;28;20468;-55
2023/04/21 13:04:52;;;;;;;10.75;6.28;;;;;;;;;;6272543;28;20064;-56
2023/04/21 13:07:54;;;;;;;12.67;6.90;;;;;;;;;;6271748;28;20076;-54
2023/04/21 13:10:54;;;;;;;9.43;6.35;;;;;;;;;;6266143;28;20171;-61
2023/04/21 13:13:57;;;;;;;13.48;6.82;;;;;;;;;;6268029;28;20045;-51
2023/04/21 13:16:57;;;;;;;;;;;;;;;;;;6268369;28;20389;-54
2023/04/21 13:19:58;;;;;;;10.40;6.13;;;;;;;;;;6269486;28;19921;-56
2023/04/21 13:22:59;;;;;;;10.25;6.40;;;;;;;;;;6266338;28;20130;-55
2023/04/21 13:25:59;;;;;;;10.20;6.17;;;;;;;;;;6282650;28;20053;-53
2023/04/21 13:29:02;;;;;;;10.00;6.20;;;;;;;;;;6269764;28;20063;-55
2023/04/21 13:32:05;;;;;;;11.95;6.72;;;;;;;;;;6268290;28;20045;-60
2023/04/21 13:35:08;;;;;;;11.80;7.35;;;;;;;;;;6266677;28;20044;-54
2023/04/21 13:38:09;;;;;;;11.30;7.65;;;;;;;;;;6265047;28;20044;-51
2023/04/21 13:41:09;;;;;;;14.68;6.97;;;;;;;;;;6266236;28;20097;-54
2023/04/21 13:44:10;;;;;;;12.57;6.77;;;;;;;;;;6270711;28;20041;-55
2023/04/21 13:47:10;;;;;;;12.23;7.05;;;;;;;;;;6265668;28;20049;-54
2023/04/21 13:50:11;;;;;;;10.38;6.60;;;;;;;;;;6269087;28;20092;-53
2023/04/21 13:53:14;;;;;;;10.82;6.68;;;;;;;;;;6270525;28;20053;-56
2023/04/21 13:56:16;;;;;;;12.30;6.90;;;;;;;;;;6264172;28;20379;-56
2023/04/21 13:59:16;;;;;;;9.67;6.20;;;;;;;;;;6265977;28;20941;-54
2023/04/21 14:02:17;;;;;;;15.47;6.13;;;;;;;;;;6266435;28;20083;-55
2023/04/21 14:05:18;;;;;;;11.40;6.65;;;;;;;;;;6264225;28;20041;-52
2023/04/21 14:08:19;;;;;;;11.90;5.83;;;;;;;;;;6268875;28;20045;-63
2023/04/21 14:11:20;;;;;;;7.47;5.25;;;;;;;;;;6265296;28;20048;-57
2023/04/21 14:14:21;;;;;;;11.13;5.85;;;;;;;;;;6266188;28;20041;-53
2023/04/21 14:17:22;;;;;;;11.38;6.22;;;;;;;;;;6269505;28;20032;-54
2023/04/21 14:20:23;;;;;;;11.02;6.05;;;;;;;;;;6266492;28;20068;-53
2023/04/21 14:23:24;;;;;;;10.73;6.15;;;;;;;;;;6266278;28;20057;-54
2023/04/21 14:26:25;;;;;;;9.30;5.97;;;;;;;;;;6261017;28;20041;-60
2023/04/21 14:29:25;;;;;;;10.40;5.88;;;;;;;;;;6271011;28;21503;-54
2023/04/21 14:32:26;;;;;;;9.38;5.47;;;;;;;;;;6279213;28;20076;-53
2023/04/21 14:35:27;;;;;;;11.93;5.83;;;;;;;;;;6284082;28;20532;-58
2023/04/21 14:38:29;;;;;;;8.95;5.50;;;;;;;;;;6284617;28;20067;-51
2023/04/21 14:41:30;;;;;;;9.70;5.97;;;;;;;;;;6286115;28;20091;-55
2023/04/21 14:44:30;;;;;;;10.77;6.90;;;;;;;;;;6273998;28;20507;-54
2023/04/21 14:47:32;;;;;;;13.32;6.75;;;;;;;;;;6274436;28;20044;-54
2023/04/21 14:50:32;;;;;;;12.02;6.50;;;;;;;;;;6273823;28;20040;-53
2023/04/21 14:53:33;;;;;;;12.70;7.33;;;;;;;;;;6272456;28;20093;-54
2023/04/21 14:56:33;;;;;;;9.37;6.57;;;;;;;;;;6271420;28;20564;-55
2023/04/21 14:59:34;;;;;;;9.57;5.47;;;;;;;;;;6275519;28;20475;-54
2023/04/21 15:02:35;;;;;;;9.93;5.70;;;;;;;;;;6273802;28;20485;-59
2023/04/21 15:05:35;;;;;;;9.77;5.10;;;;;;;;;;6280451;28;20056;-53
2023/04/21 15:08:36;;;;;;;8.30;5.00;;;;;;;;;;6274170;28;20132;-58
2023/04/21 15:11:36;;;;;;;8.40;5.53;;;;;;;;;;6274807;28;20044;-52
2023/04/21 15:14:40;;;;;;;8.93;5.63;;;;;;;;;;6274010;28;20096;-59
2023/04/21 15:17:41;;;;;;;11.25;6.25;;;;;;;;;;6274796;28;20777;-55
2023/04/21 15:20:43;;;;;;;10.60;7.07;;;;;;;;;;6275211;28;20125;-57
2023/04/21 15:23:44;;;;;;;11.15;6.22;;;;;;;;;;6277315;28;20429;-54
2023/04/21 15:26:44;;;;;;;9.93;6.30;;;;;;;;;;6274037;28;20044;-54
2023/04/21 15:29:45;;;;;;;11.75;6.40;;;;;;;;;;6272163;28;20056;-53
2023/04/21 15:32:46;;;;;;;10.38;5.63;;;;;;;;;;6273404;28;20043;-56
2023/04/21 15:35:47;;;;;;;10.33;5.23;;;;;;;;;;6270697;28;20057;-58
2023/04/21 15:38:48;;;;;;;8.20;5.53;;;;;;;;;;6270428;28;20449;-54
2023/04/21 15:41:48;;;;;;;9.80;6.00;;;;;;;;;;6276308;28;20044;-53
2023/04/21 15:44:51;;;;;;;;;;;;;;;;;;6278568;28;20051;-54
2023/04/21 15:47:51;;;;;;;9.23;5.78;;;;;;;;;;6275693;28;20057;-51
2023/04/21 15:50:52;;;;;;;9.60;5.93;;;;;;;;;;6282306;28;20135;-56
2023/04/21 15:53:52;;;;;;;10.97;6.47;;;;;;;;;;6273755;28;20051;-61
2023/04/21 15:56:53;;;;;;;10.20;6.57;;;;;;;;;;6278809;28;20048;-58
2023/04/21 15:59:54;;;;;;;11.03;7.20;;;;;;;;;;6277416;28;20056;-56
2023/04/21 16:02:55;;;;;;;10.63;6.33;;;;;;;;;;6279074;28;20650;-55
2023/04/21 16:05:55;;;;;;;8.70;6.10;;;;;;;;;;6280209;28;20051;-55
2023/04/21 16:08:56;;;;;;;10.57;6.55;;;;;;;;;;6282221;28;20065;-55
2023/04/21 16:11:57;;;;;;;11.03;5.77;;;;;;;;;;6278265;28;20045;-53
2023/04/21 16:14:58;;;;;;;8.50;5.30;;;;;;;;;;6276832;28;20049;-52
2023/04/21 16:18:00;;;;;;;8.93;5.40;;;;;;;;;;6278328;28;20552;-57
2023/04/21 16:21:01;;;;;;;10.10;5.35;;;;;;;;;;6276646;28;20045;-50
2023/04/21 16:24:02;;;;;;;9.57;5.40;;;;;;;;;;6277077;28;20060;-54
2023/04/21 16:27:03;;;;;;;9.93;5.33;;;;;;;;;;6278245;28;20055;-56
2023/04/21 16:30:04;;;;;;;9.17;5.43;;;;;;;;;;6281133;28;20049;-52
2023/04/21 16:33:05;;;;;;;10.50;6.15;;;;;;;;;;6277683;28;21353;-55
2023/04/21 16:36:05;;;;;;;9.82;5.45;;;;;;;;;;6277422;28;20044;-54
2023/04/21 16:39:07;;;;;;;8.17;5.43;;;;;;;;;;6275878;28;20120;-54
2023/04/21 16:42:07;;;;;;;9.67;5.37;;;;;;;;;;6278516;28;20052;-55
2023/04/21 16:45:08;;;;;;;8.73;5.55;;;;;;;;;;6279021;28;21228;-52
2023/04/21 16:48:09;;;;;;;10.63;5.70;;;;;;;;;;6282522;28;20056;-53
2023/04/21 16:51:09;;;;;;;12.53;5.83;;;;;;;;;;6280334;28;20044;-54
2023/04/21 16:54:11;;;;;;;9.50;5.15;;;;;;;;;;6275693;28;20045;-54
2023/04/21 16:57:11;;;;;;;9.63;4.82;;;;;;;;;;6277518;28;20081;-53
2023/04/21 17:00:12;;;;;;;9.13;5.03;;;;;;;;;;6280258;28;20862;-51
2023/04/21 17:03:13;;;;;;;8.02;5.20;;;;;;;;;;6281847;28;20041;-54
2023/04/21 17:06:18;;;;;;;19.17;9.85;;;;;;;;;;6284197;28;20671;-60
2023/04/21 17:09:19;;;;;;;16.33;8.55;;;;;;;;;;6289514;28;20090;-58
2023/04/21 17:12:19;;;;;;;9.55;6.63;;;;;;;;;;6286061;28;20036;-56
2023/04/21 17:15:20;;;;;;;13.25;6.30;;;;;;;;;;6283562;28;20037;-55
2023/04/21 17:18:20;;;;;;;11.35;6.88;;;;;;;;;;6285615;28;20048;-57
2023/04/21 17:21:21;;;;;;;22.35;6.78;;;;;;;;;;6284668;28;20048;-58
2023/04/21 17:24:22;;;;;;;15.93;6.82;;;;;;;;;;6283978;28;20049;-58
2023/04/21 17:27:22;;;;;;;18.05;7.25;;;;;;;;;;6285133;28;20044;-61
2023/04/21 17:30:23;;;;;;;22.57;8.67;;;;;;;;;;6284402;28;20105;-59
2023/04/21 17:33:23;;;;;;;23.27;8.97;;;;;;;;;;6286935;28;20044;-56
2023/04/21 17:36:28;;;;;;;29.20;10.38;;;;;;;;;;6285542;28;20062;-57
2023/04/21 17:39:28;;;;;;;24.52;9.18;;;;;;;;;;6291080;28;20762;-58
2023/04/21 17:42:29;;;;;;;51.15;23.55;;;;;;;;;;6290251;28;20056;-59
2023/04/21 17:45:31;;;;;;;36.07;15.47;;;;;;;;;;6281589;28;20054;-56